CYWY

Wrigley Airport

Wrigley, Northwest Territories, Canada
METAR CYWY 221700Z 15002KT 15SM FEW100 BKN180 18/05 A2960 RMK AC2CI5 SLP029 DENSITY ALT 1300FT
Observed Flight Rules
May-22 @ 17:00 UTC (51 minutes ago) Visual Flight Rules
Wind Visibility Clouds
150° at 2 knots 15 miles
  • Few at 10,000' AGL
  • Broken at 18,000' AGL
Temperatures Readings
Current 18°C / 64°F
Dewpoint 5°C / 41°F
Humidity 43%
Altimeter 29.6" Hg
Pressure 1002.9 hPa
Elevation 150
METAR CYWY 221700Z 15002KT 15SM FEW100 BKN180 18/05 A2960 RMK AC2CI5 SLP029 DENSITY ALT 1300FT
Observed Flight Rules
May-22 @ 17:00 UTC
(51 minutes ago)
VFR
Wind Visibility
150° at 2 knots 15 miles
Clouds
  • Few at 10,000' AGL
  • Broken at 18,000' AGL
Temperature Dewpoint
18°C / 64°F 5°C / 41°F
Humidity Altimeter Pressure
43% 29.6" Hg 1002.9 hPa